Time;durP1;ratioP1;P1;durP2;ratioP2;P2;SDS_P1;SDS_P2;PMS_P1;PMS_P2;Temp;Humidity;BMP_temperature;BMP_pressure;BME280_temperature;BME280_humidity;BME280_pressure;Samples;Min_cycle;Max_cycle;Signal;HPM_P1;HPM_P2
2024/01/09 00:00:38;;;;;;;8.50;5.12;;;;;;;-0.69;53.15;101163.44;5607760;31;34101;-69
2024/01/09 00:03:41;;;;;;;9.60;5.05;;;;;;;-0.68;52.75;101164.28;5608107;31;34036;-69
2024/01/09 00:06:44;;;;;;;1.37;1.10;;;;;;;-0.69;53.60;101160.84;5607635;31;34153;-69
2024/01/09 00:09:48;;;;;;;9.07;5.50;;;;;;;-0.71;52.76;101157.44;5607552;31;33985;-69
2024/01/09 00:12:50;;;;;;;7.85;5.15;;;;;;;-0.71;52.51;101167.88;5606874;31;34015;-69
2024/01/09 00:15:53;;;;;;;7.87;5.10;;;;;;;-0.61;53.24;101166.50;5607575;31;34023;-70
2024/01/09 00:18:56;;;;;;;8.75;4.93;;;;;;;-0.65;54.23;101178.00;5607405;31;34921;-69
2024/01/09 00:22:02;;;;;;;8.90;4.93;;;;;;;-0.73;54.81;101185.38;5607726;31;34031;-70
2024/01/09 00:25:06;;;;;;;7.18;4.70;;;;;;;-0.76;54.42;101182.03;5607232;31;35022;-69
2024/01/09 00:28:09;;;;;;;7.75;4.85;;;;;;;-0.74;54.84;101195.84;5607306;31;34173;-69
2024/01/09 00:31:12;;;;;;;1.02;0.90;;;;;;;-0.81;53.40;101195.28;5606353;31;34144;-68
2024/01/09 00:34:16;;;;;;;8.00;4.60;;;;;;;-0.82;53.95;101200.59;5607105;31;34018;-68
2024/01/09 00:37:19;;;;;;;6.97;4.57;;;;;;;-0.83;53.82;101201.50;5609915;31;34741;-68
2024/01/09 00:40:22;;;;;;;1.95;0.73;;;;;;;-0.91;53.58;101207.09;5609945;31;34752;-68
2024/01/09 00:43:25;;;;;;;9.57;5.10;;;;;;;-0.95;53.38;101205.56;5609819;31;34038;-68
2024/01/09 00:46:28;;;;;;;7.28;4.68;;;;;;;-0.99;54.42;101217.88;5609693;31;33964;-68
2024/01/09 00:49:31;;;;;;;7.43;4.72;;;;;;;-1.01;53.58;101224.91;5609840;31;34721;-68
2024/01/09 00:52:34;;;;;;;2.95;1.90;;;;;;;-1.07;53.96;101227.00;5609947;31;34691;-68
2024/01/09 00:55:36;;;;;;;7.60;4.60;;;;;;;-1.06;53.34;101236.47;5609526;31;34372;-68
2024/01/09 00:58:39;;;;;;;9.65;4.90;;;;;;;-0.99;53.34;101236.13;5609739;31;34129;-68
2024/01/09 01:01:42;;;;;;;8.23;4.82;;;;;;;-0.91;52.52;101236.56;5609555;31;34239;-70
2024/01/09 01:04:46;;;;;;;6.87;4.32;;;;;;;-0.82;52.51;101234.47;5609533;31;34103;-69
2024/01/09 01:07:48;;;;;;;7.90;4.60;;;;;;;-0.81;52.34;101234.38;5609926;31;34653;-68
2024/01/09 01:10:53;;;;;;;6.97;4.30;;;;;;;-0.66;52.67;101244.03;5610020;31;35211;-69
2024/01/09 01:13:56;;;;;;;7.87;4.60;;;;;;;-0.64;51.09;101254.41;5609448;31;34128;-69
2024/01/09 01:16:59;;;;;;;6.70;4.03;;;;;;;-0.59;51.23;101262.84;5609590;31;34112;-69
2024/01/09 01:20:02;;;;;;;7.20;4.35;;;;;;;-0.49;51.48;101261.47;5609455;31;34119;-69
2024/01/09 01:23:06;;;;;;;6.87;4.30;;;;;;;-0.50;50.87;101259.78;5609853;31;34166;-69
2024/01/09 01:26:09;;;;;;;6.85;4.35;;;;;;;-0.62;50.10;101269.03;5609336;31;35404;-69
2024/01/09 01:29:12;;;;;;;8.48;4.60;;;;;;;-0.55;50.73;101264.37;5609394;31;34167;-68
2024/01/09 01:32:15;;;;;;;6.15;3.97;;;;;;;-0.54;49.97;101266.91;5609228;31;34103;-69
2024/01/09 01:35:18;;;;;;;6.97;4.40;;;;;;;-0.57;50.58;101274.88;5609393;31;34206;-68
2024/01/09 01:38:21;;;;;;;7.10;4.10;;;;;;;-0.50;50.58;101268.44;5608662;31;35012;-69
2024/01/09 01:41:24;;;;;;;7.43;4.10;;;;;;;-0.50;49.66;101275.41;5609377;31;34738;-68
2024/01/09 01:44:26;;;;;;;6.28;4.12;;;;;;;-0.45;49.91;101276.03;5609435;31;34784;-69
2024/01/09 01:47:31;;;;;;;7.75;4.05;;;;;;;-0.50;48.75;101289.28;5608696;31;34356;-69
2024/01/09 01:50:34;;;;;;;7.90;4.45;;;;;;;-0.52;50.62;101280.69;5609201;31;34134;-69
2024/01/09 01:53:37;;;;;;;6.80;4.30;;;;;;;-0.59;48.49;101284.53;5609159;31;34810;-68
2024/01/09 01:56:41;;;;;;;7.97;4.12;;;;;;;-0.48;48.90;101291.81;5609001;31;34446;-69
2024/01/09 01:59:45;;;;;;;6.78;3.97;;;;;;;-0.52;49.06;101287.66;5609095;31;34036;-68
2024/01/09 02:02:50;;;;;;;6.95;4.00;;;;;;;-0.52;49.54;101291.13;5609084;31;34249;-68
2024/01/09 02:05:55;;;;;;;7.20;4.05;;;;;;;-0.55;48.12;101288.69;5608267;31;34056;-69
2024/01/09 02:08:59;;;;;;;7.35;4.00;;;;;;;-0.73;47.50;101284.37;5608955;31;34691;-68
2024/01/09 02:12:02;;;;;;;6.47;3.78;;;;;;;-0.71;48.03;101287.72;5609162;31;34741;-69
2024/01/09 02:15:05;;;;;;;5.90;3.58;;;;;;;-0.72;48.88;101295.59;5609274;31;35049;-68
2024/01/09 02:18:08;;;;;;;6.60;3.62;;;;;;;-0.65;47.98;101286.59;5608902;31;34060;-69
2024/01/09 02:21:11;;;;;;;6.05;3.70;;;;;;;-0.75;47.12;101291.41;5608880;31;34146;-68
2024/01/09 02:24:14;;;;;;;1.05;0.55;;;;;;;-0.63;48.37;101293.41;5608923;31;34824;-69
2024/01/09 02:27:36;;;;;;;6.50;3.72;;;;;;;-0.72;47.39;101296.44;5609104;31;35154;-68
2024/01/09 02:30:41;;;;;;;5.28;3.53;;;;;;;-0.62;47.80;101302.91;5608815;31;33997;-68
2024/01/09 02:33:46;;;;;;;1.05;0.82;;;;;;;-0.57;48.05;101302.69;5608791;31;34781;-68
2024/01/09 02:36:49;;;;;;;6.43;3.60;;;;;;;-0.56;47.31;101301.78;5608775;31;34196;-68
2024/01/09 02:39:52;;;;;;;6.00;3.55;;;;;;;-0.69;47.69;101314.56;5608694;31;34806;-68
2024/01/09 02:42:55;;;;;;;7.10;3.80;;;;;;;-0.58;48.50;101307.03;5608726;31;34047;-68
2024/01/09 02:45:58;;;;;;;7.00;3.80;;;;;;;-0.50;48.28;101307.53;5608777;31;34706;-68
2024/01/09 02:49:01;;;;;;;6.28;3.67;;;;;;;-0.62;47.92;101307.28;5607987;31;33970;-68
2024/01/09 02:52:04;;;;;;;5.95;3.60;;;;;;;-0.70;47.75;101304.19;5607981;31;34215;-69
2024/01/09 02:55:08;;;;;;;6.03;3.40;;;;;;;-0.64;46.94;101307.38;5607965;31;33980;-68
2024/01/09 02:58:10;;;;;;;6.43;3.60;;;;;;;-0.49;47.89;101311.00;5608287;31;34401;-68
2024/01/09 03:01:13;;;;;;;5.00;3.33;;;;;;;-0.64;47.74;101311.72;5609343;31;34075;-69
2024/01/09 03:04:16;;;;;;;7.78;3.45;;;;;;;-0.63;47.43;101311.63;5608997;31;34114;-68
2024/01/09 03:07:19;;;;;;;6.07;3.35;;;;;;;-0.56;47.18;101318.25;5608972;31;34191;-67
2024/01/09 03:10:23;;;;;;;6.18;3.10;;;;;;;-0.59;47.05;101318.41;5608456;31;34024;-68
2024/01/09 03:13:26;;;;;;;5.87;3.65;;;;;;;-0.57;47.05;101326.13;5608376;31;34000;-69
2024/01/09 03:16:28;;;;;;;5.25;3.40;;;;;;;-0.55;45.65;101319.09;5608463;31;34396;-67
2024/01/09 03:19:31;;;;;;;0.70;0.57;;;;;;;-0.55;46.80;101324.31;5608322;31;34720;-68
2024/01/09 03:22:35;;;;;;;6.72;3.40;;;;;;;-0.66;46.64;101322.22;5608338;31;35008;-68
2024/01/09 03:25:38;;;;;;;6.93;3.75;;;;;;;-0.55;46.58;101327.78;5608397;31;33954;-68
2024/01/09 03:28:41;;;;;;;5.62;3.22;;;;;;;-0.61;47.03;101325.44;5607410;31;34343;-69
2024/01/09 03:31:44;;;;;;;5.35;3.30;;;;;;;-0.66;47.21;101330.03;5608191;31;34075;-68
2024/01/09 03:34:46;;;;;;;5.12;3.25;;;;;;;-0.68;46.82;101337.09;5608539;31;34962;-69
2024/01/09 03:37:49;;;;;;;4.85;3.20;;;;;;;-0.61;46.77;101332.41;5607569;31;33303;-69
2024/01/09 03:40:52;;;;;;;6.03;3.10;;;;;;;-0.53;45.60;101345.91;5608136;31;34203;-68
2024/01/09 03:43:55;;;;;;;6.90;3.20;;;;;;;-0.55;46.39;101343.41;5608016;31;35120;-69
2024/01/09 03:46:58;;;;;;;4.75;3.17;;;;;;;-0.56;46.31;101346.06;5607296;31;34077;-69
2024/01/09 03:50:01;;;;;;;4.53;3.20;;;;;;;-0.64;46.75;101351.66;5607976;31;33996;-68
2024/01/09 03:53:04;;;;;;;5.90;3.45;;;;;;;-0.65;46.09;101359.53;5607950;31;34012;-69
2024/01/09 03:56:07;;;;;;;6.45;3.50;;;;;;;-0.78;45.55;101355.84;5607772;31;34770;-68
2024/01/09 03:59:10;;;;;;;3.92;2.67;;;;;;;-0.79;46.15;101361.97;5608012;31;34920;-68
2024/01/09 04:02:13;;;;;;;6.30;3.30;;;;;;;-0.78;46.48;101361.91;5607726;31;34136;-69
2024/01/09 04:05:15;;;;;;;5.43;2.90;;;;;;;-0.84;46.79;101366.53;5607978;31;34063;-69
2024/01/09 04:08:18;;;;;;;6.90;3.30;;;;;;;-0.80;46.35;101365.47;5607829;31;34008;-68
2024/01/09 04:11:22;;;;;;;3.92;2.87;;;;;;;-0.85;45.85;101378.72;5609189;31;34962;-68
2024/01/09 04:14:24;;;;;;;6.93;3.50;;;;;;;-0.93;46.11;101380.84;5610027;31;34049;-68
2024/01/09 04:17:28;;;;;;;5.15;3.28;;;;;;;-0.98;46.17;101388.88;5610149;31;33977;-68
2024/01/09 04:20:31;;;;;;;5.07;2.90;;;;;;;-1.05;45.95;101394.41;5610394;31;34188;-70
2024/01/09 04:23:34;;;;;;;5.65;3.25;;;;;;;-1.07;46.37;101394.50;5610159;31;34182;-68
2024/01/09 04:26:37;;;;;;;5.20;3.12;;;;;;;-1.06;46.33;101401.38;5610060;31;34667;-68
2024/01/09 04:29:41;;;;;;;4.22;3.10;;;;;;;-1.08;46.13;101400.59;5609243;31;35227;-69
2024/01/09 04:32:43;;;;;;;1.48;0.80;;;;;;;-1.18;45.95;101407.13;5609979;31;34197;-69
2024/01/09 04:35:47;;;;;;;4.62;2.90;;;;;;;-1.18;45.64;101416.69;5609863;31;33950;-69
2024/01/09 04:38:49;;;;;;;6.85;3.25;;;;;;;-1.18;46.35;101408.88;5609493;31;33955;-69
2024/01/09 04:41:52;;;;;;;1.30;0.50;;;;;;;-1.19;45.67;101415.84;5609835;31;34227;-70
2024/01/09 04:44:55;;;;;;;5.90;3.40;;;;;;;-1.12;45.30;101411.22;5609932;31;34130;-70
2024/01/09 04:47:58;;;;;;;5.05;3.17;;;;;;;-1.11;45.44;101421.56;5610008;31;33608;-70
2024/01/09 04:51:01;;;;;;;8.02;3.60;;;;;;;-1.04;46.09;101422.12;5609456;31;34117;-68
2024/01/09 04:54:05;;;;;;;5.30;3.20;;;;;;;-1.06;47.26;101419.59;5609890;31;34280;-69
2024/01/09 04:57:07;;;;;;;6.18;3.67;;;;;;;-1.01;46.49;101417.63;5610056;31;34738;-69
2024/01/09 05:00:11;;;;;;;5.97;3.45;;;;;;;-1.03;45.89;101424.69;5609695;31;34189;-70
2024/01/09 05:03:14;;;;;;;5.85;3.78;;;;;;;-0.97;46.16;101423.56;5609660;31;34161;-69
2024/01/09 05:06:19;;;;;;;5.62;3.20;;;;;;;-0.98;46.35;101424.47;5609646;31;34733;-70
2024/01/09 05:09:23;;;;;;;7.70;3.40;;;;;;;-1.03;46.06;101436.84;5609635;31;33956;-68
2024/01/09 05:12:26;;;;;;;5.87;3.20;;;;;;;-1.04;46.95;101432.56;5609577;31;34217;-69
2024/01/09 05:15:28;;;;;;;4.12;2.80;;;;;;;-0.99;46.99;101443.63;5609764;31;35044;-68
2024/01/09 05:18:32;;;;;;;5.60;2.97;;;;;;;-1.06;46.89;101442.19;5609679;31;35112;-69
2024/01/09 05:21:35;;;;;;;6.87;3.03;;;;;;;-0.99;47.09;101449.66;5609401;31;34427;-70
2024/01/09 05:24:38;;;;;;;5.35;3.00;;;;;;;-0.91;45.95;101446.72;5609610;31;34744;-69
2024/01/09 05:27:41;;;;;;;6.07;3.10;;;;;;;-0.95;46.42;101456.44;5609454;31;34751;-69
2024/01/09 05:30:44;;;;;;;0.55;0.43;;;;;;;-0.95;46.97;101458.19;5609745;31;34910;-70
2024/01/09 05:33:47;;;;;;;6.20;3.30;;;;;;;-0.93;46.13;101469.38;5609634;31;34254;-69
2024/01/09 05:36:51;;;;;;;5.70;3.40;;;;;;;-0.98;45.68;101469.59;5609363;31;34035;-70
2024/01/09 05:39:53;;;;;;;5.15;3.37;;;;;;;-0.93;45.91;101475.44;5609619;31;34682;-71
2024/01/09 05:42:57;;;;;;;5.87;3.15;;;;;;;-0.94;45.74;101476.34;5609153;31;34954;-70
2024/01/09 05:45:59;;;;;;;6.45;3.20;;;;;;;-0.94;47.29;101491.13;5609395;31;34689;-70
2024/01/09 05:49:03;;;;;;;6.40;3.45;;;;;;;-0.95;45.87;101485.06;5609532;31;34045;-70
2024/01/09 05:52:06;;;;;;;6.65;2.95;;;;;;;-0.96;45.79;101491.19;5608467;31;34053;-70
2024/01/09 05:55:09;;;;;;;2.15;0.95;;;;;;;-0.91;45.32;101498.81;5609480;31;34088;-70
2024/01/09 05:58:12;;;;;;;6.47;3.10;;;;;;;-1.03;45.62;101497.59;5608588;31;35150;-70
2024/01/09 06:01:15;;;;;;;7.57;3.40;;;;;;;-1.04;44.77;101502.88;5609222;31;34458;-70
2024/01/09 06:04:18;;;;;;;5.72;3.08;;;;;;;-1.06;44.79;101502.06;5609154;31;34790;-70
2024/01/09 06:07:22;;;;;;;5.78;3.25;;;;;;;-1.08;44.78;101507.38;5609196;31;34502;-69
2024/01/09 06:10:25;;;;;;;6.80;3.53;;;;;;;-1.08;45.44;101514.34;5608940;31;34146;-69
2024/01/09 06:13:28;;;;;;;6.57;3.28;;;;;;;-1.00;45.31;101514.84;5608637;31;34134;-70
2024/01/09 06:16:31;;;;;;;7.03;3.50;;;;;;;-1.09;45.79;101516.09;5608537;31;34706;-71
2024/01/09 06:19:35;;;;;;;2.12;1.12;;;;;;;-1.03;44.59;101525.41;5609305;31;34036;-70
2024/01/09 06:22:38;;;;;;;7.55;3.62;;;;;;;-1.04;44.31;101539.31;5608980;31;34624;-70
2024/01/09 06:25:44;;;;;;;5.75;3.42;;;;;;;-1.02;45.22;101540.97;5609152;31;34088;-69
2024/01/09 06:28:47;;;;;;;6.68;3.30;;;;;;;-1.05;45.12;101538.47;5608860;31;35102;-70
2024/01/09 06:31:51;;;;;;;8.55;3.42;;;;;;;-1.07;44.86;101540.31;5608500;31;34314;-69
2024/01/09 06:34:55;;;;;;;5.75;3.30;;;;;;;-1.05;44.60;101548.03;5608063;31;35087;-70
2024/01/09 06:37:57;;;;;;;1.27;0.43;;;;;;;-0.94;45.10;101553.66;5608466;31;34125;-70
2024/01/09 06:41:01;;;;;;;9.50;3.58;;;;;;;-0.93;44.93;101561.41;5594551;31;34615;-70
2024/01/09 06:44:04;;;;;;;6.72;3.60;;;;;;;-1.00;45.06;101562.56;5608288;31;34098;-70
2024/01/09 06:47:07;;;;;;;6.90;3.17;;;;;;;-0.91;45.46;101566.53;5607721;31;34065;-70
2024/01/09 06:50:11;;;;;;;6.85;3.35;;;;;;;-1.06;45.08;101573.22;5608598;31;34070;-70
2024/01/09 06:53:32;;;;;;;5.70;3.30;;;;;;;-1.05;44.92;101572.34;5608525;31;34819;-69
2024/01/09 06:56:35;;;;;;;6.75;3.30;;;;;;;-0.99;45.30;101579.88;5608889;31;34035;-69
2024/01/09 06:59:43;;;;;;;5.87;3.50;;;;;;;-1.00;44.93;101575.59;5609071;31;34149;-69
2024/01/09 07:02:46;;;;;;;7.40;3.30;;;;;;;-0.82;45.26;101584.38;5608444;31;34563;-70
2024/01/09 07:05:49;;;;;;;7.00;3.42;;;;;;;-0.80;45.30;101598.19;5608628;31;34100;-70
2024/01/09 07:08:52;;;;;;;6.32;3.45;;;;;;;-0.88;46.10;101589.84;5607730;31;34005;-70
2024/01/09 07:11:55;;;;;;;8.90;3.55;;;;;;;-0.93;45.21;101599.63;5608213;31;34160;-70
2024/01/09 07:14:58;;;;;;;8.48;3.58;;;;;;;-0.77;45.23;101611.06;5607588;31;34667;-70
2024/01/09 07:18:01;;;;;;;8.25;3.80;;;;;;;-0.79;44.68;101618.12;5607427;31;34859;-71
2024/01/09 07:21:04;;;;;;;7.53;3.33;;;;;;;-0.72;44.86;101618.69;5608402;31;34040;-70
2024/01/09 07:24:07;;;;;;;8.98;3.83;;;;;;;-0.61;45.43;101624.28;5607790;31;34076;-70
2024/01/09 07:27:12;;;;;;;7.05;3.58;;;;;;;-0.63;45.10;101634.78;5608095;31;33965;-70
2024/01/09 07:30:18;;;;;;;6.22;3.62;;;;;;;-0.61;45.04;101639.94;5607628;31;34284;-70
2024/01/09 07:33:22;;;;;;;10.88;3.95;;;;;;;-0.53;45.13;101645.66;5607774;31;34411;-70
2024/01/09 07:36:25;;;;;;;9.32;4.12;;;;;;;-0.57;45.05;101650.16;5608050;31;34788;-70
2024/01/09 07:39:28;;;;;;;7.45;3.45;;;;;;;-0.50;44.64;101656.81;5607877;31;35011;-70
2024/01/09 07:42:31;;;;;;;9.32;3.90;;;;;;;-0.51;44.34;101659.47;5608133;31;34235;-70
2024/01/09 07:45:37;;;;;;;6.30;3.60;;;;;;;-0.46;44.44;101653.16;5606777;31;34203;-69
2024/01/09 07:48:40;;;;;;;15.38;4.00;;;;;;;-0.38;44.93;101663.22;5608211;31;34137;-70
2024/01/09 07:51:44;;;;;;;6.30;3.72;;;;;;;-0.28;44.42;101667.13;5608102;31;34246;-69
2024/01/09 07:54:47;;;;;;;8.90;3.80;;;;;;;-0.26;44.01;101669.69;5607691;31;34845;-70
2024/01/09 07:57:50;;;;;;;8.18;4.37;;;;;;;-0.19;44.48;101668.47;5607672;31;34123;-69
2024/01/09 08:00:54;;;;;;;8.60;4.00;;;;;;;-0.17;44.41;101667.50;5607733;31;34762;-70
2024/01/09 08:03:57;;;;;;;9.43;4.12;;;;;;;-0.28;44.69;101674.09;5607556;31;34753;-69
2024/01/09 08:07:00;;;;;;;8.93;4.00;;;;;;;-0.29;44.57;101675.03;5607660;31;34010;-70
2024/01/09 08:10:04;;;;;;;22.13;4.75;;;;;;;-0.19;44.69;101684.13;5607527;31;35062;-70
2024/01/09 08:13:06;;;;;;;8.32;4.00;;;;;;;-0.36;44.35;101682.28;5607569;31;34684;-70
2024/01/09 08:16:09;;;;;;;9.80;4.18;;;;;;;-0.13;44.61;101689.94;5607568;31;34002;-69
2024/01/09 08:19:12;;;;;;;8.88;4.30;;;;;;;-0.06;44.50;101691.37;5607385;31;34048;-69
2024/01/09 08:22:18;;;;;;;8.30;3.78;;;;;;;-0.14;44.61;101690.84;5606992;31;34002;-69
2024/01/09 08:25:20;;;;;;;8.95;4.30;;;;;;;0.00;44.76;101696.28;5606583;31;34251;-69
2024/01/09 08:28:23;;;;;;;7.95;4.22;;;;;;;0.14;44.18;101697.47;5606892;31;34186;-68
2024/01/09 08:31:26;;;;;;;7.12;4.30;;;;;;;0.00;43.29;101704.13;5606991;31;34363;-69
2024/01/09 08:34:29;;;;;;;7.35;4.25;;;;;;;0.12;43.30;101707.94;5606938;31;34349;-70
2024/01/09 08:37:32;;;;;;;16.17;4.30;;;;;;;0.31;44.17;101715.78;5607218;31;34095;-70
2024/01/09 08:40:35;;;;;;;10.85;4.10;;;;;;;0.27;44.32;101719.47;5606958;31;34074;-70
2024/01/09 08:43:41;;;;;;;6.72;3.80;;;;;;;0.45;44.37;101718.63;5606308;31;34007;-70
2024/01/09 08:46:44;;;;;;;7.85;3.85;;;;;;;0.49;43.24;101727.16;5606958;31;34090;-70
2024/01/09 08:49:48;;;;;;;7.65;4.05;;;;;;;0.59;42.48;101728.41;5606798;31;35131;-70
2024/01/09 08:52:54;;;;;;;9.38;4.10;;;;;;;0.60;43.26;101735.34;5606606;31;35151;-69
2024/01/09 08:55:57;;;;;;;11.15;4.47;;;;;;;0.57;43.57;101731.13;5607733;31;33945;-70
2024/01/09 08:59:00;;;;;;;6.03;3.85;;;;;;;0.76;43.54;101737.19;5609954;31;34684;-70
2024/01/09 09:02:03;;;;;;;7.82;4.05;;;;;;;0.79;42.77;101741.41;5609586;31;35087;-70
2024/01/09 09:05:11;;;;;;;8.85;4.28;;;;;;;0.81;43.43;101744.78;5609131;31;34938;-69
2024/01/09 09:08:14;;;;;;;6.68;3.75;;;;;;;0.63;43.32;101740.44;5609376;31;34036;-69
2024/01/09 09:11:17;;;;;;;7.37;4.00;;;;;;;0.83;42.59;101749.00;5609470;31;34694;-69
2024/01/09 09:14:20;;;;;;;6.87;3.95;;;;;;;1.01;43.17;101749.94;5609308;31;35430;-70
2024/01/09 09:17:23;;;;;;;8.38;3.92;;;;;;;0.91;43.24;101755.66;5609433;31;35053;-70
2024/01/09 09:20:26;;;;;;;8.52;4.20;;;;;;;1.10;43.19;101756.47;5609725;31;34955;-69
2024/01/09 09:23:29;;;;;;;8.00;3.90;;;;;;;1.19;42.64;101754.25;5609828;31;34159;-69
2024/01/09 09:26:34;;;;;;;7.20;4.45;;;;;;;1.21;42.87;101756.81;5609365;31;34245;-70
2024/01/09 09:29:37;;;;;;;8.80;3.97;;;;;;;1.01;42.97;101756.91;5609517;31;34185;-69
2024/01/09 09:32:42;;;;;;;9.48;4.32;;;;;;;1.17;43.57;101768.31;5609428;31;34717;-69
2024/01/09 09:35:46;;;;;;;10.00;4.80;;;;;;;1.45;42.07;101760.84;5609305;31;35218;-69
2024/01/09 09:38:52;;;;;;;11.32;4.15;;;;;;;1.77;41.83;101753.97;5609471;31;34042;-71
2024/01/09 09:41:57;;;;;;;9.15;4.30;;;;;;;1.97;42.29;101763.44;5609275;31;34147;-70
2024/01/09 09:45:07;;;;;;;9.60;4.47;;;;;;;1.84;41.83;101757.12;5609319;31;34849;-69
2024/01/09 09:48:15;;;;;;;8.65;4.53;;;;;;;2.09;41.58;101754.91;5608574;31;34005;-69
2024/01/09 09:51:18;;;;;;;8.43;4.53;;;;;;;1.60;41.16;101753.97;5609080;31;35135;-70
2024/01/09 09:54:23;;;;;;;9.48;4.32;;;;;;;1.59;41.94;101757.53;5608318;31;34984;-69
2024/01/09 09:57:27;;;;;;;7.12;4.50;;;;;;;2.11;41.28;101753.94;5609492;31;34742;-70
2024/01/09 10:00:30;;;;;;;8.25;4.32;;;;;;;2.25;40.29;101758.44;5609138;31;34196;-69
2024/01/09 10:03:35;;;;;;;6.82;4.07;;;;;;;1.66;40.65;101758.91;5609009;31;34069;-70
2024/01/09 10:06:44;;;;;;;8.90;3.80;;;;;;;1.27;41.41;101757.34;5608739;31;34269;-69
2024/01/09 10:09:52;;;;;;;7.87;3.42;;;;;;;1.31;41.32;101752.78;5608335;31;34084;-69
2024/01/09 10:12:57;;;;;;;6.87;3.72;;;;;;;1.27;38.59;101752.09;5608829;31;34844;-70
2024/01/09 10:16:02;;;;;;;6.95;3.17;;;;;;;1.45;39.30;101768.69;5608669;31;34463;-69
2024/01/09 10:19:05;;;;;;;5.68;3.42;;;;;;;1.40;38.94;101767.22;5608777;31;34039;-70
2024/01/09 10:22:08;;;;;;;7.18;3.37;;;;;;;1.10;37.99;101773.00;5608962;31;34722;-69
2024/01/09 10:25:12;;;;;;;9.30;3.72;;;;;;;1.43;39.42;101767.91;5609376;31;34121;-70
2024/01/09 10:28:17;;;;;;;7.75;4.00;;;;;;;1.94;41.05;101763.56;5609044;31;34261;-70
2024/01/09 10:31:20;;;;;;;6.15;3.42;;;;;;;2.34;38.41;101773.66;5609200;31;34364;-70
2024/01/09 10:34:26;;;;;;;7.20;3.28;;;;;;;1.83;38.21;101771.12;5608908;31;34809;-70
2024/01/09 10:37:33;;;;;;;6.15;3.40;;;;;;;1.81;37.75;101773.81;5608840;31;34607;-70
2024/01/09 10:40:38;;;;;;;6.95;3.28;;;;;;;1.45;38.14;101770.44;5608350;31;34218;-69
2024/01/09 10:43:41;;;;;;;7.20;3.22;;;;;;;1.62;38.71;101766.06;5608123;31;34108;-68
2024/01/09 10:46:45;;;;;;;4.90;3.22;;;;;;;1.67;39.32;101777.13;5609029;31;34221;-69
2024/01/09 10:49:49;;;;;;;7.03;3.20;;;;;;;1.64;38.99;101774.69;5611758;31;33867;-69
2024/01/09 10:52:54;;;;;;;6.72;3.08;;;;;;;1.47;39.22;101765.97;5596903;31;35049;-68
2024/01/09 10:56:03;;;;;;;8.15;3.42;;;;;;;1.48;39.28;101770.28;5609448;31;34065;-68
2024/01/09 10:59:11;;;;;;;5.93;3.20;;;;;;;1.21;38.38;101781.16;5608347;31;34635;-69
2024/01/09 11:02:21;;;;;;;6.62;3.20;;;;;;;1.25;40.26;101774.88;5608616;31;34398;-69
2024/01/09 11:05:25;;;;;;;5.90;2.90;;;;;;;1.15;39.48;101776.25;5608523;31;33955;-68
2024/01/09 11:08:29;;;;;;;8.23;3.40;;;;;;;1.03;39.57;101781.19;5608648;31;34222;-69
2024/01/09 11:11:34;;;;;;;5.05;3.15;;;;;;;1.08;38.94;101780.06;5608548;31;34023;-69
2024/01/09 11:14:40;;;;;;;6.65;3.40;;;;;;;1.11;39.34;101777.31;5608279;31;34155;-70
2024/01/09 11:17:48;;;;;;;7.25;3.37;;;;;;;1.19;39.74;101772.56;5608338;31;34716;-69
2024/01/09 11:21:01;;;;;;;5.30;3.20;;;;;;;1.38;40.55;101777.72;5608345;31;34111;-69
2024/01/09 11:24:05;;;;;;;7.43;3.62;;;;;;;1.44;39.84;101774.81;5608240;31;33904;-69
2024/01/09 11:27:10;;;;;;;7.40;3.30;;;;;;;1.28;39.77;101773.88;5607596;31;35149;-69
2024/01/09 11:30:21;;;;;;;7.40;3.15;;;;;;;1.45;40.80;101773.91;5595052;31;34134;-69
2024/01/09 11:33:31;;;;;;;8.40;3.45;;;;;;;1.49;40.40;101766.75;5608118;31;34209;-68
2024/01/09 11:36:39;;;;;;;6.07;3.45;;;;;;;1.62;40.48;101771.28;5607597;31;34159;-70
2024/01/09 11:39:46;;;;;;;5.97;3.70;;;;;;;1.52;40.43;101769.19;5607236;31;34920;-69
2024/01/09 11:42:50;;;;;;;8.40;3.80;;;;;;;1.62;40.80;101771.28;5607916;31;34027;-70
2024/01/09 11:45:53;;;;;;;5.55;3.37;;;;;;;1.59;40.06;101763.59;5607929;31;34164;-71
2024/01/09 11:49:00;;;;;;;5.37;3.12;;;;;;;1.83;41.35;101773.75;5608789;31;34105;-69
2024/01/09 11:52:06;;;;;;;5.25;2.97;;;;;;;1.78;41.27;101760.06;5607317;31;32806;-70
2024/01/09 11:55:12;;;;;;;6.60;3.22;;;;;;;1.87;41.74;101764.81;5607713;31;34127;-71
2024/01/09 11:58:20;;;;;;;5.07;3.00;;;;;;;1.95;41.47;101766.09;5607499;31;34137;-68
2024/01/09 12:01:24;;;;;;;5.50;2.95;;;;;;;2.17;41.77;101764.09;5607638;31;34105;-70
2024/01/09 12:04:31;;;;;;;4.72;2.70;;;;;;;2.31;41.34;101765.13;5606896;31;33989;-71
2024/01/09 12:07:38;;;;;;;4.90;2.78;;;;;;;2.36;40.55;101761.34;5607570;31;34139;-69
2024/01/09 12:10:47;;;;;;;5.45;2.97;;;;;;;2.28;40.90;101768.72;5607504;31;34196;-69
2024/01/09 12:13:59;;;;;;;4.85;2.90;;;;;;;2.26;40.51;101769.75;5607360;31;34221;-70
2024/01/09 12:17:18;;;;;;;6.65;2.90;;;;;;;2.36;41.19;101769.19;5604853;31;83431;-69
2024/01/09 12:20:22;;;;;;;5.10;2.72;;;;;;;2.32;40.79;101777.28;5607468;31;34149;-70
2024/01/09 12:23:25;;;;;;;6.18;3.30;;;;;;;2.51;40.71;101767.53;5607344;31;34034;-71
2024/01/09 12:26:31;;;;;;;6.03;2.55;;;;;;;2.64;40.33;101776.41;5607165;31;33983;-69
2024/01/09 12:29:34;;;;;;;4.65;2.45;;;;;;;2.92;39.99;101773.13;5606418;31;34164;-70
2024/01/09 12:32:38;;;;;;;7.18;2.87;;;;;;;3.01;39.12;101769.97;5608429;31;34697;-70
2024/01/09 12:35:46;;;;;;;6.95;2.78;;;;;;;2.97;38.97;101771.09;5609696;31;34813;-70
2024/01/09 12:38:51;;;;;;;6.18;2.40;;;;;;;2.77;39.53;101774.81;5609615;31;34043;-71
2024/01/09 12:42:05;;;;;;;6.20;2.70;;;;;;;2.91;39.20;101772.28;5609712;31;34194;-71
2024/01/09 12:45:11;;;;;;;4.15;2.65;;;;;;;3.16;40.03;101777.00;5610124;31;34161;-71
2024/01/09 12:48:14;;;;;;;5.37;2.60;;;;;;;3.17;38.96;101776.06;5609840;31;33996;-70
2024/01/09 12:51:18;;;;;;;5.03;2.87;;;;;;;2.97;39.34;101779.81;5609538;31;34097;-70
2024/01/09 12:54:24;;;;;;;6.37;2.95;;;;;;;3.12;40.95;101782.50;5609525;31;35082;-70
2024/01/09 12:57:29;;;;;;;5.87;2.58;;;;;;;3.35;40.68;101782.03;5609713;31;34063;-70
2024/01/09 13:00:32;;;;;;;3.35;2.20;;;;;;;3.46;40.60;101783.13;5609520;31;34097;-70
2024/01/09 13:03:35;;;;;;;4.40;2.10;;;;;;;3.31;40.09;101791.88;5609639;31;34745;-69
2024/01/09 13:06:40;;;;;;;7.03;2.70;;;;;;;2.63;40.07;101787.81;5609677;31;34390;-70
2024/01/09 13:09:45;;;;;;;5.53;2.47;;;;;;;2.51;40.40;101794.56;5609642;31;34057;-70
2024/01/09 13:12:49;;;;;;;4.50;2.50;;;;;;;2.34;40.82;101799.00;5609335;31;34518;-69
2024/01/09 13:15:51;;;;;;;6.07;2.30;;;;;;;2.19;41.11;101792.78;5609255;31;34127;-69
2024/01/09 13:18:55;;;;;;;4.18;2.25;;;;;;;2.25;40.95;101809.94;5609291;31;34650;-70
2024/01/09 13:21:58;;;;;;;3.47;2.00;;;;;;;2.15;39.52;101804.34;5609305;31;34070;-69
2024/01/09 13:25:21;;;;;;;9.60;2.55;;;;;;;2.07;40.28;101810.00;5608651;31;34202;-69
2024/01/09 13:28:25;;;;;;;4.45;2.20;;;;;;;2.07;39.66;101807.38;5609237;31;34126;-69
2024/01/09 13:31:28;;;;;;;8.43;2.47;;;;;;;2.06;38.33;101817.91;5608669;31;34119;-68
2024/01/09 13:34:30;;;;;;;5.30;1.87;;;;;;;2.01;38.17;101812.06;5608986;31;34758;-68
2024/01/09 13:37:34;;;;;;;3.67;2.20;;;;;;;1.98;37.67;101805.22;5608476;31;34769;-68
2024/01/09 13:40:37;;;;;;;2.20;1.55;;;;;;;1.98;38.02;101815.69;5609176;31;34145;-69
2024/01/09 13:43:40;;;;;;;4.03;1.85;;;;;;;2.00;37.81;101815.59;5608049;31;35367;-69
2024/01/09 13:46:43;;;;;;;3.97;1.87;;;;;;;1.98;37.76;101814.84;5609599;31;33917;-69
2024/01/09 13:49:46;;;;;;;3.58;1.95;;;;;;;1.97;38.62;101811.38;5608511;31;33982;-68
2024/01/09 13:53:09;;;;;;;6.03;2.00;;;;;;;1.97;38.50;101811.38;5608934;31;34256;-68
2024/01/09 13:56:15;;;;;;;3.87;2.10;;;;;;;1.95;37.79;101820.22;5608864;31;35066;-68
2024/01/09 13:59:18;;;;;;;5.43;2.12;;;;;;;1.95;37.09;101828.91;5608940;31;35220;-68
2024/01/09 14:02:21;;;;;;;4.12;2.25;;;;;;;1.97;38.07;101824.47;5608008;31;34225;-69
2024/01/09 14:05:25;;;;;;;4.18;1.92;;;;;;;1.96;37.85;101828.00;5608730;31;33975;-69
2024/01/09 14:08:27;;;;;;;2.70;1.70;;;;;;;1.96;37.08;101830.63;5608406;31;34204;-68
2024/01/09 14:11:31;;;;;;;3.42;1.95;;;;;;;1.98;37.07;101830.56;5609255;31;34024;-68
2024/01/09 14:14:34;;;;;;;4.78;1.90;;;;;;;1.94;36.87;101834.22;5608568;31;34155;-69
2024/01/09 14:17:41;;;;;;;6.55;2.12;;;;;;;1.89;36.87;101841.50;5608354;31;34000;-69
2024/01/09 14:20:44;;;;;;;4.25;1.90;;;;;;;1.82;37.03;101843.56;5608845;31;34703;-69